This is the latest recevied weather packets stored in our database for station/object W4CKA. If no packets are shown the sender has not sent any weather packets the latest 10 day(s).
| Time | Temp. | Humidity | Pressure | Rain* | Wind** | Luminosity | Snow |
|---|---|---|---|---|---|---|---|
| 1787717139 | 16.67° C | 97% | 1060.9 hPa | 0 mm | - | 0 W/m² | - |
| 1787716538 | 16.67° C | 98% | 1060.9 hPa | 0 mm | - | 0 W/m² | - |
| 1787715939 | 16.67° C | 98% | 1061 hPa | 0 mm | - | 0 W/m² | - |
| 1787715333 | 16.67° C | 98% | 1060.8 hPa | 0 mm | - | 0 W/m² | - |
| 1787714732 | 16.67° C | 97% | 1060.7 hPa | 0 mm | - | 0 W/m² | - |
| 1787714130 | 17.22° C | 97% | 1060.8 hPa | 0 mm | - | 0 W/m² | - |
| 1787713527 | 17.22° C | 97% | 1060.9 hPa | 0 mm | - | 0 W/m² | - |
| 1787712925 | 16.67° C | 96% | 1060.9 hPa | 0 mm | - | 0 W/m² | - |
| 1787712321 | 16.67° C | 97% | 1060.9 hPa | 0 mm | - | 0 W/m² | - |
| 1787711722 | 17.22° C | 97% | 1060.9 hPa | 0 mm | - | 0 W/m² | - |
| 1787711119 | 17.22° C | 95% | 1060.9 hPa | 0 mm | - | 0 W/m² | - |
| 1787710517 | 17.78° C | 94% | 1061 hPa | 0 mm | - | 0 W/m² | - |
| 1787709913 | 18.33° C | 91% | 1061 hPa | 0 mm | - | 0 W/m² | - |
| 1787709310 | 18.33° C | 92% | 1060.8 hPa | 0 mm | - | 0 W/m² | - |
| 1787708708 | 19.44° C | 89% | 1060.8 hPa | 0 mm | - | 0 W/m² | - |
| 1787708103 | 19.44° C | 90% | 1060.7 hPa | 0 mm | - | 0 W/m² | - |
| 1787707499 | 19.44° C | 88% | 1060.7 hPa | 0 mm | - | 0 W/m² | - |
| 1787706895 | 19.44° C | 87% | 1060.6 hPa | 0 mm | - | 0 W/m² | - |
| 1787706291 | 18.33° C | 93% | 1060.5 hPa | 0 mm | - | 0 W/m² | - |
| 1787705692 | 18.89° C | 92% | 1060 hPa | 0 mm | - | 0 W/m² | - |
| 1787705089 | 18.89° C | 91% | 1060.1 hPa | 0 mm | - | 0 W/m² | - |
| 1787704487 | 19.44° C | 90% | 1059.8 hPa | 0 mm | - | 0 W/m² | - |
| 1787703887 | 20° C | 88% | 1059.9 hPa | 0 mm | - | 0 W/m² | - |
| 1787703282 | 20.56° C | 82% | 1059.5 hPa | 0 mm | - | 0 W/m² | - |
| 1787702680 | 21.11° C | 86% | 1059.7 hPa | 0 mm | - | 2 W/m² | - |
* Rain latest hour (hover to see other rain measurements)
** Current wind speed in m/s (hover to see current wind gust speed)